createdAt,value
2023-11-03T00:01:34.948Z,7.80
2023-11-03T00:04:07.460Z,7.90
2023-11-03T00:06:42.280Z,8.00
2023-11-03T00:09:25.041Z,8.30
2023-11-03T00:11:53.201Z,7.60
2023-11-03T00:14:21.327Z,7.80
2023-11-03T00:16:49.521Z,8.30
2023-11-03T00:19:17.602Z,7.80
2023-11-03T00:21:45.908Z,7.80
2023-11-03T00:24:14.728Z,7.60
2023-11-03T00:26:42.736Z,8.20
2023-11-03T00:29:10.686Z,7.70
2023-11-03T00:31:46.409Z,8.00
2023-11-03T00:34:15.310Z,7.70
2023-11-03T00:36:45.654Z,7.80
2023-11-03T00:39:14.500Z,7.50
2023-11-03T00:41:43.409Z,7.80
2023-11-03T00:44:12.489Z,7.60
2023-11-03T00:46:40.973Z,7.10
2023-11-03T00:49:10.526Z,8.00
2023-11-03T00:51:38.630Z,7.80
2023-11-03T00:54:10.502Z,7.10
2023-11-03T00:56:42.206Z,8.00
2023-11-03T00:59:10.079Z,7.50
2023-11-03T01:01:40.199Z,7.50
2023-11-03T01:04:10.577Z,7.30
2023-11-03T01:06:39.694Z,7.60
2023-11-03T01:09:10.921Z,7.30
2023-11-03T01:11:39.047Z,7.00
2023-11-03T01:14:07.190Z,6.90
2023-11-03T01:16:35.219Z,7.70
2023-11-03T01:19:06.620Z,7.10
2023-11-03T01:21:35.640Z,7.20
2023-11-03T01:24:03.796Z,7.00
2023-11-03T01:26:33.017Z,7.20
2023-11-03T01:29:01.291Z,6.90
2023-11-03T01:31:29.190Z,7.60
2023-11-03T01:33:57.251Z,7.30
2023-11-03T01:36:25.335Z,7.40
2023-11-03T01:38:53.594Z,6.90
2023-11-03T01:41:21.632Z,6.50
2023-11-03T01:44:08.068Z,6.40
2023-11-03T01:46:40.026Z,6.30
2023-11-03T01:49:10.773Z,6.60
2023-11-03T01:51:41.029Z,6.30
2023-11-03T01:54:10.689Z,6.70
2023-11-03T01:56:38.868Z,7.10
2023-11-03T01:59:08.054Z,6.90
2023-11-03T02:01:37.937Z,6.60
2023-11-03T02:04:06.219Z,6.40
2023-11-03T02:06:34.421Z,6.00
2023-11-03T02:09:02.773Z,6.40
2023-11-03T02:11:32.685Z,6.70
2023-11-03T02:14:01.072Z,6.20
2023-11-03T02:16:29.400Z,5.80
2023-11-03T02:18:57.788Z,6.80
2023-11-03T02:21:25.713Z,6.10
2023-11-03T02:23:53.945Z,6.60
2023-11-03T02:26:21.906Z,6.00
2023-11-03T02:28:50.625Z,7.20
2023-11-03T02:31:18.760Z,6.30
2023-11-03T02:33:46.804Z,6.70
2023-11-03T02:36:16.543Z,6.50
2023-11-03T02:38:44.940Z,6.00
2023-11-03T02:41:13.421Z,6.30
2023-11-03T02:43:41.381Z,6.40
2023-11-03T02:46:09.426Z,6.70
2023-11-03T02:48:37.687Z,6.40
2023-11-03T02:51:05.856Z,6.60
2023-11-03T02:53:34.145Z,6.50
2023-11-03T02:56:02.116Z,6.80
2023-11-03T02:58:37.875Z,7.20
2023-11-03T03:01:11.771Z,6.50
2023-11-03T03:03:39.819Z,6.80
2023-11-03T03:06:08.063Z,6.40
2023-11-03T03:08:36.068Z,6.10
2023-11-03T03:11:05.056Z,6.50
2023-11-03T03:13:33.204Z,6.00
2023-11-03T03:16:01.234Z,6.60
2023-11-03T03:18:29.306Z,6.70
2023-11-03T03:20:57.280Z,6.40
2023-11-03T03:23:25.145Z,6.20
2023-11-03T03:25:53.055Z,6.10
2023-11-03T03:28:21.332Z,6.50
2023-11-03T03:30:49.273Z,6.00
2023-11-03T03:33:18.171Z,6.00
2023-11-03T03:35:46.243Z,6.30
2023-11-03T03:38:14.241Z,6.30
2023-11-03T03:40:42.232Z,6.70
2023-11-03T03:43:10.364Z,6.30
2023-11-03T03:45:38.501Z,6.50
2023-11-03T03:48:06.882Z,6.80
2023-11-03T03:50:34.724Z,6.00
2023-11-03T03:53:02.941Z,6.70
2023-11-03T03:55:30.983Z,7.10
2023-11-03T03:57:59.020Z,6.80
2023-11-03T04:00:27.162Z,6.70
2023-11-03T04:02:55.691Z,6.20
2023-11-03T04:05:23.797Z,6.40
2023-11-03T04:07:51.791Z,6.30
2023-11-03T04:10:19.645Z,6.50
2023-11-03T04:12:47.790Z,6.40
2023-11-03T04:15:16.284Z,6.10
2023-11-03T04:17:44.283Z,6.70
2023-11-03T04:20:12.353Z,5.90
2023-11-03T04:22:40.609Z,6.40
2023-11-03T04:25:08.891Z,5.80
2023-11-03T04:27:36.812Z,6.10
2023-11-03T04:30:05.522Z,6.00
2023-11-03T04:32:33.847Z,6.20
2023-11-03T04:35:01.974Z,6.00
2023-11-03T04:37:29.923Z,6.00
2023-11-03T04:39:57.937Z,6.20
2023-11-03T04:42:26.120Z,5.50
2023-11-03T04:44:54.065Z,6.20
2023-11-03T04:47:22.475Z,6.40
2023-11-03T04:49:50.881Z,6.00
2023-11-03T04:52:18.903Z,6.20
2023-11-03T04:54:46.975Z,6.00
2023-11-03T04:57:14.927Z,6.30
2023-11-03T04:59:42.841Z,6.40
2023-11-03T05:02:11.460Z,6.50
2023-11-03T05:04:39.442Z,5.70
2023-11-03T05:07:08.232Z,6.10
2023-11-03T05:09:38.745Z,6.40
2023-11-03T05:12:07.041Z,6.20
2023-11-03T05:14:34.920Z,5.70
2023-11-03T05:17:03.069Z,6.40
2023-11-03T05:19:31.256Z,5.90
2023-11-03T05:21:59.596Z,6.50
2023-11-03T05:24:27.502Z,5.90
2023-11-03T05:26:55.696Z,6.00
2023-11-03T05:29:28.076Z,6.90
2023-11-03T05:31:57.344Z,6.60
2023-11-03T05:34:26.347Z,6.30
2023-11-03T05:36:54.579Z,6.50
2023-11-03T05:39:23.316Z,6.40
2023-11-03T05:41:51.255Z,6.10
2023-11-03T05:44:19.655Z,6.30
2023-11-03T05:46:47.580Z,6.50
2023-11-03T05:49:15.762Z,6.40
2023-11-03T05:51:43.979Z,6.40
2023-11-03T05:54:11.909Z,6.20
2023-11-03T05:56:39.853Z,6.40
2023-11-03T05:59:07.988Z,6.30
2023-11-03T06:01:36.927Z,6.20
2023-11-03T06:04:07.250Z,6.60
2023-11-03T06:06:39.828Z,6.50
2023-11-03T06:09:08.492Z,6.20
2023-11-03T06:11:37.429Z,6.50
2023-11-03T06:14:05.642Z,6.40
2023-11-03T06:16:35.961Z,6.70
2023-11-03T06:19:05.235Z,5.80
2023-11-03T06:21:33.325Z,6.50
2023-11-03T06:24:01.517Z,6.70
2023-11-03T06:26:29.673Z,6.40
2023-11-03T06:28:57.992Z,6.30
2023-11-03T06:31:26.428Z,6.80
2023-11-03T06:33:54.443Z,6.30
2023-11-03T06:36:22.602Z,6.10
2023-11-03T06:38:50.474Z,6.30
2023-11-03T06:41:18.523Z,6.10
2023-11-03T06:43:48.924Z,5.80
2023-11-03T06:46:17.442Z,6.40
2023-11-03T06:48:45.720Z,5.90
2023-11-03T06:51:14.084Z,7.20
2023-11-03T06:53:42.056Z,6.20
2023-11-03T06:56:09.968Z,5.80
2023-11-03T06:58:38.580Z,5.50
2023-11-03T07:01:07.756Z,5.20
2023-11-03T07:03:36.106Z,5.40
2023-11-03T07:06:05.609Z,5.40
2023-11-03T07:08:34.280Z,5.50
2023-11-03T07:11:02.425Z,6.40
2023-11-03T07:13:31.087Z,5.80
2023-11-03T07:15:59.218Z,5.80
2023-11-03T07:18:27.888Z,5.40
2023-11-03T07:20:55.882Z,5.40
2023-11-03T07:23:23.824Z,5.20
2023-11-03T07:25:57.402Z,5.00
2023-11-03T07:28:25.841Z,5.10
2023-11-03T07:30:54.507Z,5.70
2023-11-03T07:33:23.452Z,4.80
2023-11-03T07:35:52.009Z,5.40
2023-11-03T07:38:23.008Z,5.30
2023-11-03T07:40:51.452Z,5.40
2023-11-03T07:43:19.371Z,5.60
2023-11-03T07:45:47.669Z,5.50
2023-11-03T07:48:16.568Z,5.10
2023-11-03T07:50:44.725Z,5.40
2023-11-03T07:53:12.689Z,5.80
2023-11-03T07:55:41.092Z,5.30
2023-11-03T07:58:09.536Z,5.70
2023-11-03T08:00:37.504Z,5.80
2023-11-03T08:03:08.892Z,5.70
2023-11-03T08:05:39.369Z,5.80
2023-11-03T08:08:08.315Z,5.50
2023-11-03T08:10:36.880Z,5.90
2023-11-03T08:13:06.349Z,6.30
2023-11-03T08:15:34.432Z,5.90
2023-11-03T08:18:03.427Z,5.80
2023-11-03T08:20:31.479Z,6.20
2023-11-03T08:22:59.812Z,6.10
2023-11-03T08:25:29.100Z,5.60
2023-11-03T08:27:57.528Z,5.40
2023-11-03T08:30:25.488Z,5.80
2023-11-03T08:32:53.599Z,6.10
2023-11-03T08:35:23.339Z,6.20
2023-11-03T08:37:56.626Z,6.30
2023-11-03T08:40:25.513Z,6.30
2023-11-03T08:42:54.850Z,5.90
2023-11-03T08:45:24.269Z,5.50
2023-11-03T08:47:53.619Z,5.10
2023-11-03T08:50:22.791Z,5.10
2023-11-03T08:52:50.763Z,6.20
2023-11-03T08:55:19.075Z,5.50
2023-11-03T08:57:48.234Z,5.90
2023-11-03T09:00:17.967Z,5.30
2023-11-03T09:02:47.945Z,5.90
2023-11-03T09:05:16.799Z,5.80
2023-11-03T09:07:45.839Z,5.90
2023-11-03T09:10:14.434Z,5.90
2023-11-03T09:12:43.022Z,6.20
2023-11-03T09:15:11.884Z,5.50
2023-11-03T09:17:45.802Z,6.20
2023-11-03T09:20:21.326Z,6.50
2023-11-03T09:22:49.716Z,5.70
2023-11-03T09:25:18.539Z,6.60
2023-11-03T09:27:48.051Z,6.50
2023-11-03T09:30:17.093Z,6.40
2023-11-03T09:32:48.931Z,6.20
2023-11-03T09:35:17.624Z,6.90
2023-11-03T09:37:45.596Z,5.80
2023-11-03T09:40:19.949Z,6.50
2023-11-03T09:42:48.456Z,6.30
2023-11-03T09:45:20.736Z,6.50
2023-11-03T09:47:52.962Z,6.80
2023-11-03T09:50:21.978Z,7.00
2023-11-03T09:52:54.851Z,8.40
2023-11-03T09:55:27.425Z,7.20
2023-11-03T09:58:03.094Z,8.00
2023-11-03T10:00:31.113Z,7.30
2023-11-03T10:02:59.464Z,7.80
2023-11-03T10:05:31.175Z,8.40
2023-11-03T10:08:05.333Z,7.30
2023-11-03T10:10:38.422Z,7.50
2023-11-03T10:13:11.996Z,8.30
2023-11-03T10:18:10.770Z,9.10
2023-11-03T10:20:43.052Z,8.50
2023-11-03T10:23:11.820Z,7.60
2023-11-03T10:25:40.446Z,8.00
2023-11-03T10:28:09.227Z,8.00
2023-11-03T10:30:39.292Z,7.60
2023-11-03T10:33:08.076Z,8.20
2023-11-03T10:35:36.756Z,7.70
2023-11-03T10:38:06.481Z,8.30
2023-11-03T10:40:34.737Z,8.10
2023-11-03T10:43:06.946Z,8.10
2023-11-03T10:45:39.562Z,7.70
2023-11-03T10:48:23.301Z,7.70
2023-11-03T10:51:10.423Z,8.70
2023-11-03T10:54:02.424Z,7.70
2023-11-03T10:56:48.542Z,7.90
2023-11-03T10:59:30.130Z,8.60
2023-11-03T11:02:09.450Z,7.80
2023-11-03T11:04:56.736Z,7.10
2023-11-03T11:07:26.618Z,7.90
2023-11-03T11:09:56.439Z,8.50
2023-11-03T11:12:44.363Z,7.50
2023-11-03T11:15:18.764Z,8.00
2023-11-03T11:17:50.132Z,8.10
2023-11-03T11:20:32.376Z,8.60
2023-11-03T11:23:08.803Z,8.30
2023-11-03T11:25:38.037Z,8.80
2023-11-03T11:28:06.134Z,8.60
2023-11-03T11:30:34.772Z,8.30
2023-11-03T11:33:03.008Z,8.60
2023-11-03T11:35:39.760Z,8.10
2023-11-03T11:38:08.004Z,8.90
2023-11-03T11:40:37.278Z,8.50
2023-11-03T11:43:18.357Z,8.60
2023-11-03T11:45:53.405Z,8.40
2023-11-03T11:48:25.112Z,8.50
2023-11-03T11:50:53.770Z,8.30
2023-11-03T11:53:22.558Z,7.60
2023-11-03T11:55:51.969Z,8.10
2023-11-03T11:58:20.251Z,8.70
2023-11-03T12:00:48.334Z,8.70
2023-11-03T12:03:19.615Z,8.90
2023-11-03T12:05:48.575Z,8.40
2023-11-03T12:08:16.654Z,8.60
2023-11-03T12:10:56.456Z,8.00
2023-11-03T12:13:25.563Z,7.50
2023-11-03T12:15:53.829Z,7.50
2023-11-03T12:18:22.044Z,7.50
2023-11-03T12:21:05.658Z,7.90
2023-11-03T12:23:35.458Z,7.90
2023-11-03T12:26:04.685Z,8.70
2023-11-03T12:28:33.345Z,8.30
2023-11-03T12:31:05.665Z,9.10
2023-11-03T12:33:40.162Z,9.20
2023-11-03T12:36:08.680Z,8.30
2023-11-03T12:38:47.812Z,8.10
2023-11-03T12:41:17.497Z,8.60
2023-11-03T12:43:55.008Z,8.70
2023-11-03T12:46:23.650Z,8.70
2023-11-03T12:49:10.215Z,8.40
2023-11-03T12:51:43.857Z,7.90
2023-11-03T12:54:19.861Z,8.40
2023-11-03T12:56:51.026Z,9.10
2023-11-03T12:59:23.383Z,10.50
2023-11-03T13:01:53.817Z,10.10
2023-11-03T13:04:21.955Z,10.50
2023-11-03T13:06:50.958Z,10.60
2023-11-03T13:09:25.418Z,9.40
2023-11-03T13:11:53.849Z,8.40
2023-11-03T13:14:21.750Z,8.90
2023-11-03T13:16:49.741Z,7.30
2023-11-03T13:19:20.810Z,7.70
2023-11-03T13:21:48.849Z,7.70
2023-11-03T13:24:17.413Z,8.40
2023-11-03T13:26:45.597Z,8.10
2023-11-03T13:29:14.174Z,8.70
2023-11-03T13:31:43.297Z,9.40
2023-11-03T13:34:13.722Z,9.00
2023-11-03T13:36:42.918Z,9.80
2023-11-03T13:39:12.955Z,10.60
2023-11-03T13:41:41.251Z,9.90
2023-11-03T13:44:09.451Z,11.10
2023-11-03T13:46:37.745Z,10.40
2023-11-03T13:49:06.385Z,11.10
2023-11-03T13:51:34.492Z,8.40
2023-11-03T13:54:04.111Z,9.10
2023-11-03T13:56:32.125Z,10.20
2023-11-03T13:59:00.182Z,10.50
2023-11-03T14:01:29.181Z,11.00
2023-11-03T14:03:57.360Z,11.40
2023-11-03T14:06:25.525Z,10.80
2023-11-03T14:08:54.421Z,12.80
2023-11-03T14:11:25.356Z,11.50
2023-11-03T14:13:56.137Z,10.30
2023-11-03T14:16:24.250Z,11.50
2023-11-03T14:18:53.303Z,10.60
2023-11-03T14:21:25.716Z,9.70
2023-11-03T14:23:56.647Z,8.80
2023-11-03T14:26:25.183Z,8.70
2023-11-03T14:28:53.118Z,9.10
2023-11-03T14:31:21.327Z,10.40
2023-11-03T14:34:16.463Z,10.30
2023-11-03T14:36:46.265Z,10.30
2023-11-03T14:39:15.986Z,10.50
2023-11-03T14:41:46.359Z,10.40
2023-11-03T14:44:16.641Z,9.90
2023-11-03T14:46:50.539Z,9.70
2023-11-03T14:49:20.888Z,9.40
2023-11-03T14:51:49.092Z,9.50
2023-11-03T14:54:16.972Z,9.20
2023-11-03T14:56:46.316Z,9.90
2023-11-03T14:59:14.318Z,9.00
2023-11-03T15:01:42.386Z,8.10
2023-11-03T15:04:10.549Z,8.00
2023-11-03T15:06:38.505Z,7.90
2023-11-03T15:09:06.451Z,7.70
2023-11-03T15:11:34.462Z,7.70
2023-11-03T15:14:02.448Z,8.00
2023-11-03T15:16:31.124Z,7.00
2023-11-03T15:19:00.510Z,5.50
2023-11-03T15:21:28.623Z,6.20
2023-11-03T15:23:56.744Z,4.60
2023-11-03T15:26:25.794Z,5.30
2023-11-03T15:28:55.030Z,5.20
2023-11-03T15:31:22.971Z,5.30
2023-11-03T15:33:51.045Z,4.50
2023-11-03T15:36:20.360Z,4.30
2023-11-03T15:38:52.069Z,3.50
2023-11-03T15:41:20.140Z,3.30
2023-11-03T15:43:48.331Z,3.50
2023-11-03T15:46:18.521Z,3.60
2023-11-03T15:48:46.710Z,3.70
2023-11-03T15:51:14.719Z,3.80
2023-11-03T15:53:44.061Z,3.40
2023-11-03T15:56:15.244Z,3.60
2023-11-03T15:58:43.247Z,3.20
2023-11-03T16:01:11.361Z,3.50
2023-11-03T16:03:40.060Z,3.30
2023-11-03T16:06:08.549Z,3.30
2023-11-03T16:08:39.302Z,3.30
2023-11-03T16:11:09.250Z,3.90
2023-11-03T16:13:37.527Z,3.80
2023-11-03T16:16:08.331Z,3.40
2023-11-03T16:18:36.413Z,3.30
2023-11-03T16:21:05.271Z,3.40
2023-11-03T16:23:35.858Z,3.20
2023-11-03T16:26:04.070Z,3.20
2023-11-03T16:28:32.574Z,4.30
2023-11-03T16:31:00.568Z,3.50
2023-11-03T16:33:29.163Z,3.40
2023-11-03T16:35:58.331Z,3.20
2023-11-03T16:38:27.761Z,3.50
2023-11-03T16:40:55.742Z,3.20
2023-11-03T16:43:23.736Z,3.60
2023-11-03T16:45:51.682Z,3.10
2023-11-03T16:48:26.122Z,3.30
2023-11-03T16:50:55.342Z,3.00
2023-11-03T16:53:29.615Z,3.10
2023-11-03T16:55:59.594Z,3.20
2023-11-03T16:58:27.530Z,3.30
2023-11-03T17:00:55.883Z,3.50
2023-11-03T17:03:24.247Z,3.30
2023-11-03T17:05:52.344Z,3.10
2023-11-03T17:08:21.891Z,3.40
2023-11-03T17:10:51.408Z,3.20
2023-11-03T17:13:20.057Z,3.40
2023-11-03T17:15:48.155Z,3.90
2023-11-03T17:18:16.970Z,3.10
2023-11-03T17:20:45.633Z,3.60
2023-11-03T17:23:14.381Z,3.30
2023-11-03T17:25:42.766Z,3.10
2023-11-03T17:28:14.125Z,3.20
2023-11-03T17:30:42.221Z,3.30
2023-11-03T17:33:12.472Z,3.30
2023-11-03T17:35:42.307Z,3.60
2023-11-03T17:38:10.949Z,2.90
2023-11-03T17:40:42.308Z,2.80
2023-11-03T17:43:10.479Z,2.50
2023-11-03T17:45:42.111Z,2.30
2023-11-03T17:48:10.420Z,2.40
2023-11-03T17:50:41.226Z,2.60
2023-11-03T17:53:10.337Z,3.00
2023-11-03T17:55:38.334Z,2.80
2023-11-03T17:58:07.647Z,2.70
2023-11-03T18:00:38.740Z,3.10
2023-11-03T18:03:11.133Z,2.70
2023-11-03T18:05:44.699Z,2.70
2023-11-03T18:08:15.295Z,2.80
2023-11-03T18:10:45.988Z,2.50
2023-11-03T18:13:16.888Z,2.40
2023-11-03T18:15:45.093Z,2.20
2023-11-03T18:18:13.286Z,3.00
2023-11-03T18:20:42.293Z,2.00
2023-11-03T18:23:14.431Z,2.20
2023-11-03T18:25:43.366Z,2.20
2023-11-03T18:28:12.545Z,2.10
2023-11-03T18:30:40.863Z,1.80
2023-11-03T18:33:09.297Z,2.20
2023-11-03T18:35:40.863Z,2.30
2023-11-03T18:38:08.790Z,2.30
2023-11-03T18:40:38.631Z,2.00
2023-11-03T18:43:07.407Z,2.80
2023-11-03T18:45:40.538Z,2.20
2023-11-03T18:48:09.725Z,2.40
2023-11-03T18:57:05.109Z,2.30
2023-11-03T19:00:14.897Z,2.40
2023-11-03T19:04:46.978Z,2.20
2023-11-03T19:07:30.578Z,2.20
2023-11-03T19:09:40.610Z,2.50
2023-11-03T19:12:15.713Z,2.50
2023-11-03T19:14:43.684Z,2.60
2023-11-03T19:17:11.555Z,3.30
2023-11-03T19:19:41.036Z,3.80
2023-11-03T19:22:11.145Z,3.40
2023-11-03T19:24:44.627Z,3.60
2023-11-03T19:27:22.729Z,4.00
2023-11-03T19:29:53.521Z,3.50
2023-11-03T19:32:22.295Z,3.90
2023-11-03T19:34:55.444Z,4.10
2023-11-03T19:37:24.013Z,6.80
2023-11-03T19:39:52.464Z,6.90
2023-11-03T19:42:21.404Z,6.90
2023-11-03T19:44:49.905Z,6.50
2023-11-03T19:47:18.111Z,6.40
2023-11-03T19:49:51.496Z,5.70
2023-11-03T19:52:21.303Z,4.90
2023-11-03T19:54:49.537Z,4.60
2023-11-03T19:57:18.142Z,4.90
2023-11-03T19:59:48.675Z,4.50
2023-11-03T20:02:22.503Z,4.60
2023-11-03T20:04:50.456Z,4.50
2023-11-03T20:07:20.871Z,4.90
2023-11-03T20:09:48.906Z,5.10
2023-11-03T20:12:16.887Z,5.10
2023-11-03T20:14:45.379Z,4.90
2023-11-03T20:17:13.367Z,5.10
2023-11-03T20:19:41.971Z,5.00
2023-11-03T20:22:13.284Z,5.10
2023-11-03T20:24:41.574Z,5.30
2023-11-03T20:27:09.869Z,5.30
2023-11-03T20:29:38.062Z,5.20
2023-11-03T20:32:11.557Z,4.90
2023-11-03T20:34:40.234Z,4.50
2023-11-03T20:37:08.303Z,4.70
2023-11-03T20:39:36.382Z,4.80
2023-11-03T20:42:10.281Z,5.10
2023-11-03T20:44:41.372Z,5.30
2023-11-03T20:47:09.424Z,5.30
2023-11-03T20:49:37.550Z,5.70
2023-11-03T20:52:08.267Z,5.60
2023-11-03T20:54:40.593Z,5.90
2023-11-03T20:57:09.039Z,6.00
2023-11-03T20:59:37.212Z,5.90
2023-11-03T21:02:08.849Z,5.50
2023-11-03T21:04:39.780Z,5.30
2023-11-03T21:07:11.924Z,5.30
2023-11-03T21:09:40.027Z,5.60
2023-11-03T21:12:08.986Z,6.20
2023-11-03T21:14:37.857Z,6.10
2023-11-03T21:17:07.898Z,6.40
2023-11-03T21:19:40.106Z,7.10
2023-11-03T21:22:08.504Z,7.30
2023-11-03T21:24:36.779Z,7.70
2023-11-03T21:27:05.927Z,8.00
2023-11-03T21:29:34.053Z,9.80
2023-11-03T21:32:02.187Z,9.80
2023-11-03T21:34:31.470Z,9.80
2023-11-03T21:36:59.535Z,9.70
2023-11-03T21:39:31.409Z,10.90
2023-11-03T21:41:59.900Z,10.40
2023-11-03T21:44:30.584Z,10.10
2023-11-03T21:46:58.753Z,10.00
2023-11-03T21:49:26.786Z,9.60
2023-11-03T21:51:54.894Z,9.60
2023-11-03T21:54:22.788Z,10.20
2023-11-03T21:56:50.677Z,9.90
2023-11-03T21:59:18.708Z,8.80
2023-11-03T22:01:48.734Z,9.20
2023-11-03T22:04:16.872Z,9.20
2023-11-03T22:06:46.969Z,8.30
2023-11-03T22:09:15.698Z,9.20
2023-11-03T22:11:44.628Z,8.20
2023-11-03T22:14:15.804Z,8.40
2023-11-03T22:16:43.807Z,7.80
2023-11-03T22:19:11.887Z,8.10
2023-11-03T22:21:39.859Z,8.70
2023-11-03T22:24:10.539Z,9.50
2023-11-03T22:26:44.154Z,8.90
2023-11-03T22:29:13.440Z,9.00
2023-11-03T22:31:48.192Z,9.00
2023-11-03T22:34:18.909Z,10.10
2023-11-03T22:36:47.232Z,10.70
2023-11-03T22:39:18.969Z,9.70
2023-11-03T22:41:49.003Z,9.30
2023-11-03T22:44:16.997Z,9.60
2023-11-03T22:46:44.898Z,9.80
2023-11-03T22:49:13.104Z,10.00
2023-11-03T22:51:41.674Z,10.20
2023-11-03T22:54:09.703Z,10.30
2023-11-03T22:56:37.635Z,10.50
2023-11-03T22:59:05.686Z,10.20
2023-11-03T23:01:41.295Z,9.90
2023-11-03T23:04:11.292Z,9.20
2023-11-03T23:06:41.169Z,10.10
2023-11-03T23:09:12.925Z,9.30
2023-11-03T23:11:41.625Z,9.60
2023-11-03T23:14:10.017Z,9.20
2023-11-03T23:16:38.145Z,9.40
2023-11-03T23:19:06.771Z,9.00
2023-11-03T23:21:35.042Z,10.10
2023-11-03T23:24:03.369Z,10.10
2023-11-03T23:26:31.217Z,9.50
2023-11-03T23:28:59.218Z,9.60
2023-11-03T23:31:27.996Z,8.70
2023-11-03T23:33:56.253Z,8.90
2023-11-03T23:36:27.026Z,8.90
2023-11-03T23:38:55.643Z,8.50
2023-11-03T23:41:23.718Z,8.60
2023-11-03T23:43:54.391Z,8.40
2023-11-03T23:46:23.126Z,8.50
2023-11-03T23:48:52.359Z,9.20
2023-11-03T23:51:20.555Z,8.30
2023-11-03T23:53:48.669Z,8.50
2023-11-03T23:56:17.384Z,9.40
2023-11-03T23:58:48.741Z,9.00
